Time;durP1;ratioP1;P1;durP2;ratioP2;P2;SDS_P1;SDS_P2;PMS_P1;PMS_P2;Temp;Humidity;BMP_temperature;BMP_pressure;BME280_temperature;BME280_humidity;BME280_pressure;Samples;Min_cycle;Max_cycle;Signal;HPM_P1;HPM_P2
2022/07/03 00:01:23;;;;;;;2.03;0.70;;;;;;;;;;5004077;28;20224;-64
2022/07/03 00:03:48;;;;;;;3.88;0.63;;;;;;;;;;5023154;28;20204;-64
2022/07/03 00:06:14;;;;;;;3.38;0.80;;;;;;;;;;5021845;28;20235;-64
2022/07/03 00:08:39;;;;;;;1.55;0.70;;;;;;;;;;5016546;28;20297;-64
2022/07/03 00:11:05;;;;;;;2.15;0.75;;;;;;;;;;5014876;28;20250;-64
2022/07/03 00:13:30;;;;;;;3.50;0.80;;;;;;;;;;5007128;28;20201;-64
2022/07/03 00:15:55;;;;;;;2.05;0.75;;;;;;;;;;5001479;28;20220;-64
2022/07/03 00:18:20;;;;;;;2.90;0.80;;;;;;;;;;5003141;28;20223;-64
2022/07/03 00:20:47;;;;;;;3.50;1.00;;;;;;;;;;5002712;28;20307;-64
2022/07/03 00:23:13;;;;;;;1.77;0.75;;;;;;;;;;5002844;28;20220;-64
2022/07/03 00:25:38;;;;;;;3.70;1.05;;;;;;;;;;5003270;28;20222;-64
2022/07/03 00:28:04;;;;;;;2.30;0.80;;;;;;;;;;5004553;28;20770;-64
2022/07/03 00:30:30;;;;;;;2.25;0.70;;;;;;;;;;5009646;28;20312;-64
2022/07/03 00:32:55;;;;;;;3.28;0.80;;;;;;;;;;4994932;28;20545;-64
2022/07/03 00:35:20;;;;;;;3.60;1.02;;;;;;;;;;5014122;28;20774;-64
2022/07/03 00:37:46;;;;;;;3.35;0.90;;;;;;;;;;5018878;28;20725;-64
2022/07/03 00:40:11;;;;;;;3.75;1.17;;;;;;;;;;5021218;28;21192;-64
2022/07/03 00:42:37;;;;;;;3.53;0.93;;;;;;;;;;5021950;28;20784;-64
2022/07/03 00:45:02;;;;;;;1.92;0.93;;;;;;;;;;5006204;28;20691;-64
2022/07/03 00:47:28;;;;;;;1.65;1.00;;;;;;;;;;5003548;28;20277;-64
2022/07/03 00:49:54;;;;;;;4.55;1.15;;;;;;;;;;5021958;28;20216;-64
2022/07/03 00:52:22;;;;;;;1.63;0.93;;;;;;;;;;5019484;28;20574;-64
2022/07/03 00:54:54;;;;;;;2.53;1.10;;;;;;;;;;5004537;28;20212;-64
2022/07/03 00:57:20;;;;;;;2.70;1.20;;;;;;;;;;4995338;28;20216;-64
2022/07/03 00:59:45;;;;;;;2.60;0.93;;;;;;;;;;5016256;28;20242;-64
2022/07/03 01:02:25;;;;;;;3.83;1.05;;;;;;;;;;5001560;28;20246;-64
2022/07/03 01:04:52;;;;;;;3.15;1.00;;;;;;;;;;5004849;28;20294;-64
2022/07/03 01:07:18;;;;;;;3.22;1.00;;;;;;;;;;4984404;28;20771;-64
2022/07/03 01:09:51;;;;;;;4.00;0.90;;;;;;;;;;5002666;28;20208;-64
2022/07/03 01:12:19;;;;;;;2.22;1.00;;;;;;;;;;5020927;28;20323;-64
2022/07/03 01:14:55;;;;;;;3.55;1.10;;;;;;;;;;5002331;28;20204;-64
2022/07/03 01:17:25;;;;;;;2.90;1.20;;;;;;;;;;5002080;28;20575;-64
2022/07/03 01:19:50;;;;;;;3.15;1.10;;;;;;;;;;4994913;28;20710;-64
2022/07/03 01:22:30;;;;;;;5.68;1.20;;;;;;;;;;4979792;28;20219;-64
2022/07/03 01:25:03;;;;;;;3.53;1.10;;;;;;;;;;5021644;28;20791;-64
2022/07/03 01:27:29;;;;;;;3.30;1.13;;;;;;;;;;5032607;28;20807;-64
2022/07/03 01:29:57;;;;;;;2.97;1.10;;;;;;;;;;5020092;28;20569;-64
2022/07/03 01:32:24;;;;;;;3.47;1.13;;;;;;;;;;5020962;28;20277;-64
2022/07/03 01:34:50;;;;;;;3.58;1.30;;;;;;;;;;5008493;28;20678;-64
2022/07/03 01:37:16;;;;;;;1.92;1.10;;;;;;;;;;5001096;28;20226;-64
2022/07/03 01:39:41;;;;;;;1.70;1.15;;;;;;;;;;4996908;28;20438;-64
2022/07/03 01:42:07;;;;;;;5.25;1.40;;;;;;;;;;5012950;28;20764;-64
2022/07/03 01:44:32;;;;;;;2.53;1.23;;;;;;;;;;4996411;28;20289;-64
2022/07/03 01:46:58;;;;;;;4.47;1.35;;;;;;;;;;5021241;28;20228;-64
2022/07/03 01:49:25;;;;;;;3.75;1.20;;;;;;;;;;5020531;28;20215;-64
2022/07/03 01:51:50;;;;;;;3.38;1.17;;;;;;;;;;5003021;28;20211;-64
2022/07/03 01:54:16;;;;;;;2.17;1.27;;;;;;;;;;4999709;28;20220;-65
2022/07/03 01:56:41;;;;;;;4.35;1.30;;;;;;;;;;5003044;28;21145;-65
2022/07/03 01:59:06;;;;;;;3.38;1.45;;;;;;;;;;5019899;28;20634;-64
2022/07/03 02:01:45;;;;;;;3.90;1.20;;;;;;;;;;5015691;28;20302;-64
2022/07/03 02:04:10;;;;;;;4.30;1.30;;;;;;;;;;4994803;28;20214;-64
2022/07/03 02:06:41;;;;;;;2.45;1.00;;;;;;;;;;5013342;28;20223;-64
2022/07/03 02:09:07;;;;;;;5.43;1.20;;;;;;;;;;5019785;28;20219;-64
2022/07/03 02:11:35;;;;;;;4.60;1.27;;;;;;;;;;5020879;28;20258;-64
2022/07/03 02:14:07;;;;;;;5.22;1.40;;;;;;;;;;5008685;28;20242;-64
2022/07/03 02:16:36;;;;;;;3.03;1.40;;;;;;;;;;5001147;28;20308;-64
2022/07/03 02:19:03;;;;;;;3.63;1.70;;;;;;;;;;5002106;28;20702;-64
2022/07/03 02:21:28;;;;;;;3.10;1.88;;;;;;;;;;5021286;28;20211;-64
2022/07/03 02:24:11;;;;;;;5.05;2.08;;;;;;;;;;5016272;28;20226;-64
2022/07/03 02:26:38;;;;;;;6.30;2.30;;;;;;;;;;5018818;28;20216;-65
2022/07/03 02:29:04;;;;;;;4.75;2.00;;;;;;;;;;5020397;28;20217;-64
2022/07/03 02:31:32;;;;;;;5.28;2.08;;;;;;;;;;5003713;28;20212;-64
2022/07/03 02:33:58;;;;;;;6.57;2.25;;;;;;;;;;5001741;28;20306;-63
2022/07/03 02:36:24;;;;;;;3.10;1.77;;;;;;;;;;5003088;28;20758;-63
2022/07/03 02:38:51;;;;;;;6.05;2.03;;;;;;;;;;5023278;28;20220;-63
2022/07/03 02:41:20;;;;;;;4.45;1.98;;;;;;;;;;5023373;28;20215;-64
2022/07/03 02:43:52;;;;;;;6.40;2.00;;;;;;;;;;5006436;28;20207;-64
2022/07/03 02:49:14;;;;;;;4.43;2.00;;;;;;;;;;5001212;28;20214;-64
2022/07/03 02:51:40;;;;;;;5.22;2.25;;;;;;;;;;5017488;28;20387;-64
2022/07/03 02:54:13;;;;;;;6.60;2.13;;;;;;;;;;5016597;28;20647;-64
2022/07/03 02:56:45;;;;;;;4.70;2.10;;;;;;;;;;5005075;28;20220;-64
2022/07/03 02:59:14;;;;;;;3.63;1.70;;;;;;;;;;5005167;28;20238;-64
2022/07/03 03:01:44;;;;;;;3.95;1.95;;;;;;;;;;5006025;28;20223;-64
2022/07/03 03:04:12;;;;;;;3.03;1.33;;;;;;;;;;5006220;28;20726;-64
2022/07/03 03:06:37;;;;;;;4.75;1.63;;;;;;;;;;5023953;28;20219;-64
2022/07/03 03:09:03;;;;;;;4.75;1.50;;;;;;;;;;5018422;28;20230;-64
2022/07/03 03:11:28;;;;;;;3.95;1.50;;;;;;;;;;5016522;28;20218;-64
2022/07/03 03:13:55;;;;;;;4.78;1.58;;;;;;;;;;5005103;28;20797;-64
2022/07/03 03:16:21;;;;;;;7.35;2.03;;;;;;;;;;5001277;28;20212;-64
2022/07/03 03:18:46;;;;;;;3.80;1.60;;;;;;;;;;5003284;28;20212;-64
2022/07/03 03:21:12;;;;;;;4.03;1.50;;;;;;;;;;5022936;28;20220;-64
2022/07/03 03:23:48;;;;;;;4.03;1.40;;;;;;;;;;5023290;28;20278;-64
2022/07/03 03:26:13;;;;;;;4.18;1.40;;;;;;;;;;5023147;28;20220;-64
2022/07/03 03:28:39;;;;;;;2.80;1.23;;;;;;;;;;5023676;28;20222;-64
2022/07/03 03:31:08;;;;;;;2.42;1.30;;;;;;;;;;5007728;28;20209;-64
2022/07/03 03:33:35;;;;;;;2.65;1.27;;;;;;;;;;4993435;28;20699;-64
2022/07/03 03:36:00;;;;;;;4.45;1.33;;;;;;;;;;4996482;28;20224;-64
2022/07/03 03:38:25;;;;;;;4.10;1.20;;;;;;;;;;5029204;28;20242;-64
2022/07/03 03:40:50;;;;;;;3.67;1.40;;;;;;;;;;5025745;28;20207;-64
2022/07/03 03:43:16;;;;;;;3.17;1.17;;;;;;;;;;5023775;28;20314;-64
2022/07/03 03:45:41;;;;;;;4.65;1.45;;;;;;;;;;5024092;28;20216;-64
2022/07/03 03:48:06;;;;;;;2.78;1.13;;;;;;;;;;5022791;28;20676;-64
2022/07/03 03:50:32;;;;;;;2.92;1.25;;;;;;;;;;5021769;28;20297;-63
2022/07/03 03:52:58;;;;;;;4.88;1.27;;;;;;;;;;5024711;28;20211;-64
2022/07/03 03:55:24;;;;;;;6.10;1.48;;;;;;;;;;5020041;28;20199;-64
2022/07/03 03:57:49;;;;;;;4.95;1.40;;;;;;;;;;5015382;28;20231;-64
2022/07/03 04:00:14;;;;;;;4.78;1.52;;;;;;;;;;5015053;28;20273;-64
2022/07/03 04:02:40;;;;;;;4.22;1.48;;;;;;;;;;5042020;28;20219;-64
2022/07/03 04:05:05;;;;;;;4.03;1.55;;;;;;;;;;5041296;28;20301;-62
2022/07/03 04:07:30;;;;;;;4.90;2.00;;;;;;;;;;5025271;28;20470;-64
2022/07/03 04:09:56;;;;;;;4.95;1.70;;;;;;;;;;5022920;28;20223;-64
2022/07/03 04:12:21;;;;;;;5.10;1.77;;;;;;;;;;5023689;28;20757;-64
2022/07/03 04:14:46;;;;;;;4.22;1.90;;;;;;;;;;5024491;28;20567;-64
2022/07/03 04:17:12;;;;;;;6.15;1.90;;;;;;;;;;5017807;28;20220;-64
2022/07/03 04:19:37;;;;;;;4.78;2.08;;;;;;;;;;5014386;28;20261;-63
2022/07/03 04:22:08;;;;;;;5.30;1.85;;;;;;;;;;5013941;28;20219;-63
2022/07/03 04:24:33;;;;;;;4.45;1.98;;;;;;;;;;5032878;28;20215;-63
2022/07/03 04:26:58;;;;;;;4.43;2.53;;;;;;;;;;5022696;28;20220;-63
2022/07/03 04:29:23;;;;;;;5.10;2.60;;;;;;;;;;5022878;28;20223;-63
2022/07/03 04:31:49;;;;;;;3.35;1.60;;;;;;;;;;5022628;28;20291;-63
2022/07/03 04:34:14;;;;;;;5.25;1.45;;;;;;;;;;5021916;28;20211;-63
2022/07/03 04:36:39;;;;;;;2.95;1.60;;;;;;;;;;5023123;28;20651;-63
2022/07/03 04:39:05;;;;;;;2.78;1.52;;;;;;;;;;5018230;28;20452;-63
2022/07/03 04:41:30;;;;;;;3.97;1.52;;;;;;;;;;5015222;28;20687;-64
2022/07/03 04:43:55;;;;;;;5.68;1.83;;;;;;;;;;5014443;28;20219;-63
2022/07/03 04:46:21;;;;;;;3.08;1.30;;;;;;;;;;5031208;28;20261;-63
2022/07/03 04:48:46;;;;;;;3.35;1.40;;;;;;;;;;5021839;28;20219;-62
2022/07/03 04:51:12;;;;;;;3.38;1.42;;;;;;;;;;5023581;28;20721;-62
2022/07/03 04:53:37;;;;;;;3.53;1.30;;;;;;;;;;5022632;28;20211;-61
2022/07/03 04:56:02;;;;;;;3.17;1.30;;;;;;;;;;5023181;28;20230;-63
2022/07/03 04:58:28;;;;;;;5.13;1.80;;;;;;;;;;5022526;28;20211;-62
2022/07/03 05:00:53;;;;;;;3.58;1.50;;;;;;;;;;5020850;28;20235;-62
2022/07/03 05:03:18;;;;;;;4.10;1.60;;;;;;;;;;5021929;28;20239;-62
2022/07/03 05:05:44;;;;;;;5.80;1.85;;;;;;;;;;5015290;28;20239;-63
2022/07/03 05:08:09;;;;;;;5.45;1.50;;;;;;;;;;5013921;28;20219;-63
2022/07/03 05:10:34;;;;;;;2.72;1.40;;;;;;;;;;5022606;28;20271;-63
2022/07/03 05:12:59;;;;;;;4.07;1.65;;;;;;;;;;5023192;28;20215;-63
2022/07/03 05:15:25;;;;;;;5.13;1.90;;;;;;;;;;5021427;28;20604;-64
2022/07/03 05:17:50;;;;;;;3.50;1.83;;;;;;;;;;5022221;28;20681;-62
2022/07/03 05:20:25;;;;;;;6.85;2.60;;;;;;;;;;5021733;28;20202;-62
2022/07/03 05:22:51;;;;;;;4.50;2.20;;;;;;;;;;5021622;28;20561;-63
2022/07/03 05:25:17;;;;;;;5.90;2.63;;;;;;;;;;5016759;28;20455;-62
2022/07/03 05:27:42;;;;;;;5.65;2.00;;;;;;;;;;5014826;28;20878;-64
2022/07/03 05:30:07;;;;;;;4.93;1.95;;;;;;;;;;5015478;28;20211;-64
2022/07/03 05:32:33;;;;;;;3.10;1.67;;;;;;;;;;5018683;28;20239;-64
2022/07/03 05:34:58;;;;;;;3.28;1.38;;;;;;;;;;5020371;28;20230;-64
2022/07/03 05:37:23;;;;;;;3.60;1.30;;;;;;;;;;5020329;28;20215;-64
2022/07/03 05:39:48;;;;;;;3.63;1.30;;;;;;;;;;5021667;28;20314;-64
2022/07/03 05:42:14;;;;;;;3.78;1.13;;;;;;;;;;5020428;28;20208;-64
2022/07/03 05:44:39;;;;;;;3.38;1.10;;;;;;;;;;5021839;28;20207;-64
2022/07/03 05:47:04;;;;;;;3.97;1.25;;;;;;;;;;5017804;28;20211;-64
2022/07/03 05:49:30;;;;;;;3.47;0.90;;;;;;;;;;5010097;28;20295;-64
2022/07/03 05:51:55;;;;;;;5.60;1.08;;;;;;;;;;5013509;28;20368;-64
2022/07/03 05:54:20;;;;;;;4.35;1.00;;;;;;;;;;5010095;28;21301;-64
2022/07/03 05:56:45;;;;;;;2.40;1.08;;;;;;;;;;5020845;28;20903;-64
2022/07/03 05:59:11;;;;;;;3.95;1.17;;;;;;;;;;5020984;28;20239;-63
2022/07/03 06:01:36;;;;;;;3.15;1.00;;;;;;;;;;5021596;28;20218;-64
2022/07/03 06:04:01;;;;;;;3.50;1.10;;;;;;;;;;5019782;28;20301;-64
2022/07/03 06:06:27;;;;;;;6.82;1.08;;;;;;;;;;5040037;28;20735;-64
2022/07/03 06:08:52;;;;;;;4.75;1.00;;;;;;;;;;5040276;28;20258;-64
2022/07/03 06:11:17;;;;;;;1.45;0.80;;;;;;;;;;5032650;28;20235;-64
2022/07/03 06:13:43;;;;;;;4.97;0.90;;;;;;;;;;5025293;28;20733;-64
2022/07/03 06:16:08;;;;;;;3.03;0.90;;;;;;;;;;5017575;28;20769;-65
2022/07/03 06:18:33;;;;;;;2.67;0.80;;;;;;;;;;5042888;28;20710;-64
2022/07/03 06:20:58;;;;;;;4.20;0.80;;;;;;;;;;5044631;28;20298;-64
2022/07/03 06:23:24;;;;;;;3.25;0.80;;;;;;;;;;5043617;28;20241;-64
2022/07/03 06:25:49;;;;;;;2.20;0.70;;;;;;;;;;5043907;28;20669;-64
2022/07/03 06:28:14;;;;;;;2.80;0.73;;;;;;;;;;5044043;28;20227;-64
2022/07/03 06:30:40;;;;;;;3.67;0.65;;;;;;;;;;5035668;28;20223;-64
2022/07/03 06:33:05;;;;;;;2.45;0.80;;;;;;;;;;5018624;28;20207;-64
2022/07/03 06:35:30;;;;;;;4.47;0.90;;;;;;;;;;5016936;28;20219;-64
2022/07/03 06:37:58;;;;;;;3.00;0.80;;;;;;;;;;5016896;28;20757;-64
2022/07/03 06:40:23;;;;;;;4.72;0.90;;;;;;;;;;5021981;28;20668;-64
2022/07/03 06:42:48;;;;;;;3.65;0.95;;;;;;;;;;5044519;28;20210;-64
2022/07/03 06:45:13;;;;;;;2.67;0.60;;;;;;;;;;5027313;28;20219;-64
2022/07/03 06:47:39;;;;;;;3.83;0.95;;;;;;;;;;5024098;28;20231;-64
2022/07/03 06:50:05;;;;;;;4.10;1.23;;;;;;;;;;5042665;28;20218;-65
2022/07/03 06:52:30;;;;;;;3.28;0.77;;;;;;;;;;5043585;28;20749;-64
2022/07/03 06:54:55;;;;;;;3.47;0.70;;;;;;;;;;5028631;28;20534;-64
2022/07/03 06:57:21;;;;;;;3.85;0.77;;;;;;;;;;5016664;28;20563;-64
2022/07/03 06:59:48;;;;;;;1.90;0.75;;;;;;;;;;5015864;28;21140;-64
2022/07/03 07:02:13;;;;;;;2.45;0.63;;;;;;;;;;5030479;28;20223;-64
2022/07/03 07:04:38;;;;;;;3.03;0.50;;;;;;;;;;5032887;28;20582;-64
2022/07/03 07:07:03;;;;;;;4.13;0.80;;;;;;;;;;5032580;28;20220;-64
2022/07/03 07:09:29;;;;;;;3.33;0.77;;;;;;;;;;5033775;28;20211;-64
2022/07/03 07:11:54;;;;;;;2.83;0.70;;;;;;;;;;5033938;28;20567;-64
2022/07/03 07:14:19;;;;;;;2.88;0.82;;;;;;;;;;5044934;28;20571;-64
2022/07/03 07:16:45;;;;;;;3.15;0.80;;;;;;;;;;5047177;28;20215;-64
2022/07/03 07:19:10;;;;;;;5.00;0.82;;;;;;;;;;5032949;28;20212;-63
2022/07/03 07:21:35;;;;;;;3.45;0.90;;;;;;;;;;5032885;28;20269;-63
2022/07/03 07:24:00;;;;;;;3.47;0.68;;;;;;;;;;5032435;28;20220;-64
2022/07/03 07:26:26;;;;;;;4.38;0.93;;;;;;;;;;5032528;28;20216;-63
2022/07/03 07:28:51;;;;;;;3.05;0.80;;;;;;;;;;5033164;28;20235;-63
2022/07/03 07:31:16;;;;;;;2.85;0.77;;;;;;;;;;5043554;28;20239;-64
2022/07/03 07:33:42;;;;;;;3.13;0.90;;;;;;;;;;5053489;28;20203;-63
2022/07/03 07:36:07;;;;;;;3.45;0.90;;;;;;;;;;5051894;28;20716;-63
2022/07/03 07:38:33;;;;;;;5.00;1.00;;;;;;;;;;5053363;28;20215;-62
2022/07/03 07:40:58;;;;;;;2.63;0.70;;;;;;;;;;5052981;28;20264;-63
2022/07/03 07:43:23;;;;;;;4.53;0.77;;;;;;;;;;5052017;28;20298;-62
2022/07/03 07:45:49;;;;;;;2.95;0.70;;;;;;;;;;5038358;28;20215;-63
2022/07/03 07:48:14;;;;;;;4.07;0.75;;;;;;;;;;5040809;28;20326;-63
2022/07/03 07:50:39;;;;;;;3.22;0.95;;;;;;;;;;5030736;28;20269;-62
2022/07/03 07:53:05;;;;;;;3.45;0.80;;;;;;;;;;5032535;28;20219;-64
2022/07/03 07:55:30;;;;;;;3.95;0.80;;;;;;;;;;5014796;28;20238;-63
2022/07/03 07:57:55;;;;;;;4.47;0.88;;;;;;;;;;5014595;28;20493;-63
2022/07/03 08:00:22;;;;;;;5.13;0.68;;;;;;;;;;5032289;28;20232;-64
2022/07/03 08:05:37;;;;;;;3.22;0.90;;;;;;;;;;5051848;28;20257;-64
2022/07/03 08:08:10;;;;;;;5.13;0.90;;;;;;;;;;5035072;28;20231;-64
2022/07/03 08:10:36;;;;;;;1.92;0.70;;;;;;;;;;5034037;28;20221;-64
2022/07/03 08:13:02;;;;;;;3.03;0.73;;;;;;;;;;5052156;28;20211;-64
2022/07/03 08:15:27;;;;;;;1.98;0.80;;;;;;;;;;5052707;28;20214;-64
2022/07/03 08:17:52;;;;;;;4.10;1.25;;;;;;;;;;5051610;28;20323;-66
2022/07/03 08:20:17;;;;;;;2.53;0.70;;;;;;;;;;5051795;28;20661;-65
2022/07/03 08:22:43;;;;;;;1.70;0.70;;;;;;;;;;5052203;28;20218;-65
2022/07/03 08:25:08;;;;;;;3.80;0.57;;;;;;;;;;5051252;28;20206;-66
2022/07/03 08:27:33;;;;;;;1.90;0.50;;;;;;;;;;5052102;28;20755;-67
2022/07/03 08:29:59;;;;;;;1.73;0.60;;;;;;;;;;5052102;28;20210;-67
2022/07/03 08:32:24;;;;;;;2.33;0.73;;;;;;;;;;5050914;28;20207;-66
2022/07/03 08:34:49;;;;;;;2.72;0.50;;;;;;;;;;5052200;28;20206;-67
2022/07/03 08:37:15;;;;;;;2.35;0.57;;;;;;;;;;5050883;28;20584;-66
2022/07/03 08:39:40;;;;;;;2.15;0.80;;;;;;;;;;5051346;28;20266;-67
2022/07/03 08:42:05;;;;;;;2.47;0.60;;;;;;;;;;5051584;28;20689;-66
2022/07/03 08:44:31;;;;;;;3.80;0.90;;;;;;;;;;5034188;28;20261;-66
2022/07/03 08:46:56;;;;;;;4.65;0.90;;;;;;;;;;5051083;28;20219;-67
2022/07/03 08:49:21;;;;;;;2.03;0.57;;;;;;;;;;5033565;28;20234;-67
2022/07/03 08:51:47;;;;;;;3.45;0.70;;;;;;;;;;5033915;28;20199;-67
2022/07/03 08:54:12;;;;;;;4.50;1.00;;;;;;;;;;5050585;28;20211;-67
2022/07/03 08:56:37;;;;;;;5.57;0.80;;;;;;;;;;5051744;28;20626;-67
2022/07/03 08:59:03;;;;;;;3.97;0.88;;;;;;;;;;5032658;28;20219;-67
2022/07/03 09:01:28;;;;;;;3.55;0.90;;;;;;;;;;5051794;28;20219;-67
2022/07/03 09:03:53;;;;;;;3.47;0.85;;;;;;;;;;5051574;28;20253;-67
2022/07/03 09:06:18;;;;;;;2.55;0.63;;;;;;;;;;5032748;28;20203;-67
2022/07/03 09:08:44;;;;;;;2.35;0.73;;;;;;;;;;5033662;28;20214;-67
2022/07/03 09:11:10;;;;;;;3.17;0.80;;;;;;;;;;5051144;28;20712;-67
2022/07/03 09:13:35;;;;;;;2.58;0.63;;;;;;;;;;5050828;28;20203;-68
2022/07/03 09:16:00;;;;;;;4.03;0.98;;;;;;;;;;5051210;28;20223;-67
2022/07/03 09:18:39;;;;;;;4.55;0.73;;;;;;;;;;5051441;28;20290;-67
2022/07/03 09:21:04;;;;;;;3.00;0.82;;;;;;;;;;5032418;28;20219;-67
2022/07/03 09:23:34;;;;;;;4.65;1.00;;;;;;;;;;5051027;28;20306;-67
2022/07/03 09:26:01;;;;;;;3.45;0.90;;;;;;;;;;5051594;28;20239;-67
2022/07/03 09:28:45;;;;;;;4.75;0.95;;;;;;;;;;5050366;28;20226;-67
2022/07/03 09:31:11;;;;;;;3.95;0.80;;;;;;;;;;5049088;28;20309;-67
2022/07/03 09:33:47;;;;;;;2.78;0.77;;;;;;;;;;5021260;28;20222;-67
2022/07/03 09:36:12;;;;;;;6.13;0.70;;;;;;;;;;5015059;28;20290;-67
2022/07/03 09:38:42;;;;;;;2.00;0.80;;;;;;;;;;5036882;28;20680;-67
2022/07/03 09:41:08;;;;;;;2.83;0.80;;;;;;;;;;5037710;28;20225;-67
2022/07/03 09:43:33;;;;;;;2.15;0.75;;;;;;;;;;5024843;28;20561;-67
2022/07/03 09:45:59;;;;;;;2.58;0.88;;;;;;;;;;5025682;28;20212;-67
2022/07/03 09:48:25;;;;;;;2.95;0.70;;;;;;;;;;5025613;28;20224;-67
2022/07/03 09:51:07;;;;;;;2.47;0.75;;;;;;;;;;5033930;28;20219;-67
2022/07/03 09:53:42;;;;;;;3.10;0.73;;;;;;;;;;5011614;28;20203;-67
2022/07/03 09:56:08;;;;;;;2.20;0.63;;;;;;;;;;5023748;28;20234;-67
2022/07/03 09:58:33;;;;;;;2.25;0.70;;;;;;;;;;5029591;28;20294;-67
2022/07/03 10:01:14;;;;;;;1.90;0.80;;;;;;;;;;5021216;28;20236;-67
2022/07/03 10:03:40;;;;;;;2.58;0.63;;;;;;;;;;5028055;28;20218;-66
2022/07/03 10:06:05;;;;;;;2.88;0.70;;;;;;;;;;5030552;28;20223;-67
2022/07/03 10:08:30;;;;;;;2.17;0.70;;;;;;;;;;5009336;28;20231;-67
2022/07/03 10:10:56;;;;;;;1.63;0.60;;;;;;;;;;5016921;28;20230;-67
2022/07/03 10:13:21;;;;;;;2.90;0.70;;;;;;;;;;5007566;28;20355;-67
2022/07/03 10:15:46;;;;;;;4.50;0.80;;;;;;;;;;4992021;28;20218;-67
2022/07/03 10:18:12;;;;;;;3.38;0.93;;;;;;;;;;5023803;28;20848;-66
2022/07/03 10:20:47;;;;;;;2.80;0.70;;;;;;;;;;5003598;28;20260;-66
2022/07/03 10:23:12;;;;;;;3.30;0.90;;;;;;;;;;5020144;28;20211;-67
2022/07/03 10:25:41;;;;;;;4.45;1.00;;;;;;;;;;5005594;28;20291;-67
2022/07/03 10:28:06;;;;;;;2.95;0.90;;;;;;;;;;5027956;28;20224;-67
2022/07/03 10:30:31;;;;;;;2.50;0.88;;;;;;;;;;5007091;28;20224;-67
2022/07/03 10:32:57;;;;;;;3.40;0.90;;;;;;;;;;5014256;28;20280;-67
2022/07/03 10:35:29;;;;;;;3.60;1.13;;;;;;;;;;5014245;28;20710;-67
2022/07/03 10:37:54;;;;;;;4.07;1.23;;;;;;;;;;4996191;28;20219;-67
2022/07/03 10:46:07;;;;;;;2.53;0.88;;;;;;;;;;5012869;28;20227;-67
2022/07/03 10:48:51;;;;;;;2.95;0.80;;;;;;;;;;5033729;28;20228;-67
2022/07/03 10:51:16;;;;;;;3.88;0.80;;;;;;;;;;5033689;28;20254;-67
2022/07/03 10:53:41;;;;;;;3.10;0.90;;;;;;;;;;5033582;28;20626;-66
2022/07/03 10:56:07;;;;;;;4.50;0.90;;;;;;;;;;5033697;28;20218;-67
2022/07/03 10:58:32;;;;;;;4.82;0.90;;;;;;;;;;5033988;28;20216;-67
2022/07/03 11:00:58;;;;;;;3.42;0.98;;;;;;;;;;5033295;28;20466;-67
2022/07/03 11:03:42;;;;;;;3.25;0.75;;;;;;;;;;5033580;28;20211;-67
2022/07/03 11:06:07;;;;;;;4.68;1.50;;;;;;;;;;5033359;28;20222;-67
2022/07/03 11:08:33;;;;;;;4.32;1.13;;;;;;;;;;5048230;28;20589;-67
2022/07/03 11:11:54;;;;;;;2.25;0.82;;;;;;;;;;5036118;28;20685;-67
2022/07/03 11:14:02;;;;;;;2.17;0.60;;;;;;;;;;5046246;28;20215;-67
2022/07/03 11:16:27;;;;;;;3.17;0.80;;;;;;;;;;5033563;28;20211;-67
2022/07/03 11:18:58;;;;;;;2.97;0.90;;;;;;;;;;5033899;28;20212;-67
2022/07/03 11:21:27;;;;;;;2.38;0.73;;;;;;;;;;5031672;28;20215;-67
2022/07/03 11:23:59;;;;;;;3.28;0.60;;;;;;;;;;5033499;28;20277;-67
2022/07/03 11:26:24;;;;;;;3.95;0.80;;;;;;;;;;5031504;28;20597;-66
2022/07/03 11:28:50;;;;;;;3.03;0.80;;;;;;;;;;5032863;28;20262;-66
2022/07/03 11:31:16;;;;;;;1.95;0.60;;;;;;;;;;5043474;28;20783;-66
2022/07/03 11:33:43;;;;;;;3.15;0.88;;;;;;;;;;5047231;28;20224;-67
2022/07/03 11:36:10;;;;;;;6.50;1.02;;;;;;;;;;5030805;28;20575;-67
2022/07/03 11:38:35;;;;;;;4.80;1.00;;;;;;;;;;5032968;28;20208;-67
2022/07/03 11:41:00;;;;;;;5.43;1.08;;;;;;;;;;5032080;28;20218;-66
2022/07/03 11:43:26;;;;;;;3.53;1.10;;;;;;;;;;5032576;28;20208;-67
2022/07/03 11:45:51;;;;;;;3.95;0.88;;;;;;;;;;5033208;28;20214;-67
2022/07/03 11:48:17;;;;;;;4.47;0.60;;;;;;;;;;5031897;28;20262;-67
2022/07/03 11:50:43;;;;;;;2.17;0.70;;;;;;;;;;5015797;28;20683;-67
2022/07/03 11:53:16;;;;;;;4.10;1.27;;;;;;;;;;5032395;28;20220;-67
2022/07/03 11:55:46;;;;;;;4.35;1.35;;;;;;;;;;5031914;28;20265;-67
2022/07/03 11:58:11;;;;;;;2.15;0.70;;;;;;;;;;5014603;28;20242;-67
2022/07/03 12:00:37;;;;;;;3.25;0.93;;;;;;;;;;5032681;28;20223;-66
2022/07/03 12:03:03;;;;;;;2.47;0.80;;;;;;;;;;5014138;28;20724;-67
2022/07/03 12:05:28;;;;;;;1.85;0.70;;;;;;;;;;5032789;28;20298;-67
2022/07/03 12:08:02;;;;;;;2.40;0.82;;;;;;;;;;5032505;28;20810;-67
2022/07/03 12:10:37;;;;;;;2.70;0.70;;;;;;;;;;5024817;28;20211;-66
2022/07/03 12:13:03;;;;;;;3.63;0.90;;;;;;;;;;5052524;28;20226;-67
2022/07/03 12:15:28;;;;;;;3.33;0.88;;;;;;;;;;5052787;28;20211;-67
2022/07/03 12:17:53;;;;;;;2.28;0.73;;;;;;;;;;5051568;28;20658;-67
2022/07/03 12:20:19;;;;;;;2.85;0.70;;;;;;;;;;5051826;28;20684;-66
2022/07/03 12:22:44;;;;;;;2.25;0.80;;;;;;;;;;5052307;28;20207;-67
2022/07/03 12:25:10;;;;;;;3.33;0.70;;;;;;;;;;5050870;28;20222;-67
2022/07/03 12:27:37;;;;;;;1.45;0.70;;;;;;;;;;5052491;28;20219;-67
2022/07/03 12:30:02;;;;;;;3.00;0.70;;;;;;;;;;5032857;28;20216;-67
2022/07/03 12:32:28;;;;;;;2.40;1.00;;;;;;;;;;5023030;28;20212;-67
2022/07/03 12:34:53;;;;;;;2.53;0.70;;;;;;;;;;5032134;28;20555;-67
2022/07/03 12:37:30;;;;;;;2.97;0.70;;;;;;;;;;5031035;28;20678;-67
2022/07/03 12:39:55;;;;;;;4.38;1.13;;;;;;;;;;5032213;28;20207;-67
2022/07/03 12:42:21;;;;;;;2.88;0.80;;;;;;;;;;5013885;28;20631;-67
2022/07/03 12:44:54;;;;;;;2.15;0.80;;;;;;;;;;5031664;28;20239;-67
2022/07/03 12:47:21;;;;;;;3.90;1.13;;;;;;;;;;5031111;28;20310;-64
2022/07/03 12:49:46;;;;;;;2.83;0.70;;;;;;;;;;5031761;28;20204;-67
2022/07/03 12:52:11;;;;;;;4.40;0.80;;;;;;;;;;5030805;28;20239;-67
2022/07/03 12:54:37;;;;;;;2.88;0.70;;;;;;;;;;5031866;28;20215;-67
2022/07/03 12:59:16;;;;;;;2.88;0.70;;;;;;;;;;5013844;28;20280;-67
2022/07/03 13:00:03;;;;;;;3.70;0.70;;;;;;;;;;5050592;28;20234;-66
2022/07/03 13:02:28;;;;;;;1.42;0.52;;;;;;;;;;5043442;28;20213;-66
2022/07/03 13:04:54;;;;;;;2.13;0.60;;;;;;;;;;5051602;28;20215;-66
2022/07/03 13:07:19;;;;;;;2.00;0.75;;;;;;;;;;5050560;28;20265;-66
2022/07/03 13:09:51;;;;;;;1.25;0.60;;;;;;;;;;5051802;28;20247;-66
2022/07/03 13:12:20;;;;;;;2.38;0.70;;;;;;;;;;5041750;28;20207;-66
2022/07/03 13:14:54;;;;;;;2.30;0.77;;;;;;;;;;5051348;28;20214;-66
2022/07/03 13:17:19;;;;;;;2.33;0.88;;;;;;;;;;5050870;28;20211;-66
2022/07/03 13:19:45;;;;;;;4.43;0.77;;;;;;;;;;5032988;28;20207;-66
2022/07/03 13:22:10;;;;;;;2.53;0.70;;;;;;;;;;5050953;28;20215;-66
2022/07/03 13:24:35;;;;;;;2.67;0.70;;;;;;;;;;5051526;28;20211;-66
2022/07/03 13:27:00;;;;;;;2.72;0.85;;;;;;;;;;5049943;28;20230;-66
2022/07/03 13:29:26;;;;;;;4.53;0.80;;;;;;;;;;5050884;28;20222;-66
2022/07/03 13:31:51;;;;;;;2.70;0.60;;;;;;;;;;5051124;28;20214;-66
2022/07/03 13:34:17;;;;;;;1.45;0.60;;;;;;;;;;5049972;28;20211;-66
2022/07/03 13:36:42;;;;;;;2.85;0.68;;;;;;;;;;5051493;28;20214;-66
2022/07/03 13:39:09;;;;;;;1.77;0.70;;;;;;;;;;5051039;28;20257;-66
2022/07/03 13:41:35;;;;;;;3.47;0.60;;;;;;;;;;5050400;28;20203;-67
2022/07/03 13:44:00;;;;;;;4.18;0.80;;;;;;;;;;5050721;28;20627;-67
2022/07/03 13:46:25;;;;;;;2.30;0.80;;;;;;;;;;5050831;28;20242;-66
2022/07/03 13:48:51;;;;;;;2.20;0.60;;;;;;;;;;5050241;28;20219;-66
2022/07/03 13:51:16;;;;;;;3.30;0.80;;;;;;;;;;5050773;28;20549;-66
2022/07/03 13:53:42;;;;;;;4.20;1.00;;;;;;;;;;5051240;28;20234;-66
2022/07/03 13:56:07;;;;;;;3.13;0.70;;;;;;;;;;5049875;28;20218;-65
2022/07/03 13:58:32;;;;;;;2.38;0.70;;;;;;;;;;5050740;28;20211;-67
2022/07/03 14:00:58;;;;;;;2.72;0.80;;;;;;;;;;5050432;28;20223;-66
2022/07/03 14:03:24;;;;;;;1.77;0.80;;;;;;;;;;5049485;28;20215;-66
2022/07/03 14:05:51;;;;;;;2.60;0.80;;;;;;;;;;5051002;28;20199;-66
2022/07/03 14:08:17;;;;;;;2.28;0.80;;;;;;;;;;5050591;28;20696;-66
2022/07/03 14:10:42;;;;;;;1.95;0.80;;;;;;;;;;5050415;28;20214;-66
2022/07/03 14:13:08;;;;;;;1.63;0.77;;;;;;;;;;5049952;28;20211;-66
2022/07/03 14:15:33;;;;;;;4.10;0.80;;;;;;;;;;5049864;28;20215;-66
2022/07/03 14:17:59;;;;;;;4.60;1.10;;;;;;;;;;5050735;28;20211;-66
2022/07/03 14:20:25;;;;;;;2.53;1.00;;;;;;;;;;5050213;28;20264;-66
2022/07/03 14:22:51;;;;;;;2.70;0.90;;;;;;;;;;5050077;28;20761;-66
2022/07/03 14:25:16;;;;;;;3.28;0.98;;;;;;;;;;5050691;28;20226;-66
2022/07/03 14:33:09;;;;;;;2.10;0.80;;;;;;;;;;5038866;28;20295;-66
2022/07/03 14:35:35;;;;;;;2.28;0.80;;;;;;;;;;5034093;28;20283;-66
2022/07/03 14:38:00;;;;;;;1.60;1.10;;;;;;;;;;5033136;28;20219;-66
2022/07/03 14:40:26;;;;;;;1.58;0.80;;;;;;;;;;5016604;28;20211;-66
2022/07/03 14:42:51;;;;;;;3.08;1.05;;;;;;;;;;5034074;28;20212;-66
2022/07/03 14:45:17;;;;;;;3.20;1.13;;;;;;;;;;5032961;28;20220;-66
2022/07/03 14:47:43;;;;;;;2.97;0.95;;;;;;;;;;5034198;28;20696;-66
2022/07/03 14:50:08;;;;;;;1.95;0.80;;;;;;;;;;5033958;28;20291;-66
2022/07/03 14:52:34;;;;;;;1.67;0.70;;;;;;;;;;5033783;28;20299;-66
2022/07/03 14:54:59;;;;;;;5.20;0.90;;;;;;;;;;5033954;28;20556;-66
2022/07/03 14:57:27;;;;;;;2.97;1.15;;;;;;;;;;5033423;28;20218;-66